sensor_id;sensor_type;location;lat;lon;timestamp;P1;durP1;ratioP1;P2;durP2;ratioP2
16304;SDS011;8261;47.678;-122.174;2023-05-07T00:01:16;3.73;;;1.77;;
16304;SDS011;8261;47.678;-122.174;2023-05-07T00:03:47;2.57;;;1.60;;
16304;SDS011;8261;47.678;-122.174;2023-05-07T00:06:20;2.93;;;1.60;;
16304;SDS011;8261;47.678;-122.174;2023-05-07T00:08:51;2.60;;;1.80;;
16304;SDS011;8261;47.678;-122.174;2023-05-07T00:11:22;3.43;;;1.60;;
16304;SDS011;8261;47.678;-122.174;2023-05-07T00:13:53;3.73;;;1.77;;
16304;SDS011;8261;47.678;-122.174;2023-05-07T00:16:24;6.23;;;2.30;;
16304;SDS011;8261;47.678;-122.174;2023-05-07T00:18:55;4.47;;;2.10;;
16304;SDS011;8261;47.678;-122.174;2023-05-07T00:21:28;3.60;;;1.97;;
16304;SDS011;8261;47.678;-122.174;2023-05-07T00:23:58;3.23;;;1.47;;
16304;SDS011;8261;47.678;-122.174;2023-05-07T00:26:29;2.40;;;1.20;;
16304;SDS011;8261;47.678;-122.174;2023-05-07T00:29:00;2.17;;;1.07;;
16304;SDS011;8261;47.678;-122.174;2023-05-07T00:31:32;1.57;;;1.03;;
16304;SDS011;8261;47.678;-122.174;2023-05-07T00:34:03;1.33;;;0.87;;
16304;SDS011;8261;47.678;-122.174;2023-05-07T00:36:37;2.27;;;0.80;;
16304;SDS011;8261;47.678;-122.174;2023-05-07T00:39:08;1.63;;;1.00;;
16304;SDS011;8261;47.678;-122.174;2023-05-07T00:41:39;1.33;;;1.03;;
16304;SDS011;8261;47.678;-122.174;2023-05-07T00:50:48;1.03;;;0.80;;
16304;SDS011;8261;47.678;-122.174;2023-05-07T00:53:20;2.20;;;1.00;;
16304;SDS011;8261;47.678;-122.174;2023-05-07T00:55:52;1.20;;;0.80;;
16304;SDS011;8261;47.678;-122.174;2023-05-07T00:58:24;2.57;;;1.10;;
16304;SDS011;8261;47.678;-122.174;2023-05-07T01:00:56;1.53;;;1.13;;
16304;SDS011;8261;47.678;-122.174;2023-05-07T01:03:28;1.93;;;0.90;;
16304;SDS011;8261;47.678;-122.174;2023-05-07T01:06:21;1.10;;;0.63;;
16304;SDS011;8261;47.678;-122.174;2023-05-07T01:15:08;2.30;;;1.13;;
16304;SDS011;8261;47.678;-122.174;2023-05-07T01:17:41;1.77;;;0.90;;
16304;SDS011;8261;47.678;-122.174;2023-05-07T01:22:56;1.30;;;0.87;;
16304;SDS011;8261;47.678;-122.174;2023-05-07T01:44:16;1.23;;;0.80;;
16304;SDS011;8261;47.678;-122.174;2023-05-07T01:49:32;2.67;;;1.50;;
16304;SDS011;8261;47.678;-122.174;2023-05-07T01:52:04;1.60;;;1.23;;
16304;SDS011;8261;47.678;-122.174;2023-05-07T01:54:36;1.77;;;1.27;;
16304;SDS011;8261;47.678;-122.174;2023-05-07T01:57:07;2.50;;;1.30;;
16304;SDS011;8261;47.678;-122.174;2023-05-07T01:59:40;2.40;;;1.57;;
16304;SDS011;8261;47.678;-122.174;2023-05-07T02:02:11;2.53;;;1.67;;
16304;SDS011;8261;47.678;-122.174;2023-05-07T02:10:00;2.03;;;1.23;;
16304;SDS011;8261;47.678;-122.174;2023-05-07T02:12:35;2.57;;;1.37;;
16304;SDS011;8261;47.678;-122.174;2023-05-07T02:15:11;1.90;;;1.53;;
16304;SDS011;8261;47.678;-122.174;2023-05-07T02:17:57;1.73;;;1.30;;
16304;SDS011;8261;47.678;-122.174;2023-05-07T02:20:29;1.83;;;1.30;;
16304;SDS011;8261;47.678;-122.174;2023-05-07T02:23:15;2.37;;;1.53;;
16304;SDS011;8261;47.678;-122.174;2023-05-07T02:25:47;2.20;;;1.27;;
16304;SDS011;8261;47.678;-122.174;2023-05-07T02:28:18;3.83;;;1.53;;
16304;SDS011;8261;47.678;-122.174;2023-05-07T02:31:05;4.43;;;1.60;;
16304;SDS011;8261;47.678;-122.174;2023-05-07T02:33:42;2.07;;;1.30;;
16304;SDS011;8261;47.678;-122.174;2023-05-07T02:36:23;3.73;;;1.83;;
16304;SDS011;8261;47.678;-122.174;2023-05-07T02:41:26;2.70;;;1.50;;
16304;SDS011;8261;47.678;-122.174;2023-05-07T02:43:57;1.93;;;1.50;;
16304;SDS011;8261;47.678;-122.174;2023-05-07T02:46:29;2.90;;;1.40;;
16304;SDS011;8261;47.678;-122.174;2023-05-07T02:49:01;3.17;;;1.50;;
16304;SDS011;8261;47.678;-122.174;2023-05-07T02:51:32;2.40;;;1.50;;
16304;SDS011;8261;47.678;-122.174;2023-05-07T02:54:04;1.97;;;1.40;;
16304;SDS011;8261;47.678;-122.174;2023-05-07T02:56:35;2.47;;;1.10;;
16304;SDS011;8261;47.678;-122.174;2023-05-07T02:59:06;2.00;;;1.80;;
16304;SDS011;8261;47.678;-122.174;2023-05-07T03:01:40;4.60;;;1.80;;
16304;SDS011;8261;47.678;-122.174;2023-05-07T03:04:12;3.23;;;1.70;;
16304;SDS011;8261;47.678;-122.174;2023-05-07T03:06:44;1.87;;;1.60;;
16304;SDS011;8261;47.678;-122.174;2023-05-07T03:09:15;2.00;;;1.30;;
16304;SDS011;8261;47.678;-122.174;2023-05-07T03:14:29;4.27;;;1.60;;
16304;SDS011;8261;47.678;-122.174;2023-05-07T03:17:04;2.77;;;1.70;;
16304;SDS011;8261;47.678;-122.174;2023-05-07T03:19:35;2.80;;;1.70;;
16304;SDS011;8261;47.678;-122.174;2023-05-07T03:22:06;1.70;;;1.50;;
16304;SDS011;8261;47.678;-122.174;2023-05-07T03:24:38;4.60;;;2.57;;
16304;SDS011;8261;47.678;-122.174;2023-05-07T03:27:09;5.37;;;2.23;;
16304;SDS011;8261;47.678;-122.174;2023-05-07T03:29:41;2.23;;;1.80;;
16304;SDS011;8261;47.678;-122.174;2023-05-07T03:32:14;3.13;;;2.17;;
16304;SDS011;8261;47.678;-122.174;2023-05-07T03:34:46;1.97;;;1.73;;
16304;SDS011;8261;47.678;-122.174;2023-05-07T03:37:18;2.57;;;1.97;;
16304;SDS011;8261;47.678;-122.174;2023-05-07T03:39:49;4.47;;;1.60;;
16304;SDS011;8261;47.678;-122.174;2023-05-07T03:42:21;2.30;;;2.00;;
16304;SDS011;8261;47.678;-122.174;2023-05-07T03:44:52;1.87;;;1.67;;
16304;SDS011;8261;47.678;-122.174;2023-05-07T03:47:26;2.27;;;2.07;;
16304;SDS011;8261;47.678;-122.174;2023-05-07T03:49:58;3.20;;;2.00;;
16304;SDS011;8261;47.678;-122.174;2023-05-07T03:52:31;2.63;;;1.90;;
16304;SDS011;8261;47.678;-122.174;2023-05-07T03:55:03;4.23;;;2.33;;
16304;SDS011;8261;47.678;-122.174;2023-05-07T03:57:35;2.10;;;1.90;;
16304;SDS011;8261;47.678;-122.174;2023-05-07T04:00:07;3.00;;;1.93;;
16304;SDS011;8261;47.678;-122.174;2023-05-07T04:02:41;3.03;;;1.67;;
16304;SDS011;8261;47.678;-122.174;2023-05-07T04:05:13;2.70;;;1.60;;
16304;SDS011;8261;47.678;-122.174;2023-05-07T04:07:45;1.80;;;1.70;;
16304;SDS011;8261;47.678;-122.174;2023-05-07T04:10:16;2.60;;;1.83;;
16304;SDS011;8261;47.678;-122.174;2023-05-07T04:12:48;2.03;;;1.80;;
16304;SDS011;8261;47.678;-122.174;2023-05-07T04:15:19;3.57;;;1.73;;
16304;SDS011;8261;47.678;-122.174;2023-05-07T04:17:53;2.27;;;2.07;;
16304;SDS011;8261;47.678;-122.174;2023-05-07T04:20:25;3.30;;;2.10;;
16304;SDS011;8261;47.678;-122.174;2023-05-07T04:22:57;2.17;;;1.93;;
16304;SDS011;8261;47.678;-122.174;2023-05-07T04:25:28;2.30;;;1.90;;
16304;SDS011;8261;47.678;-122.174;2023-05-07T04:27:59;2.97;;;2.20;;
16304;SDS011;8261;47.678;-122.174;2023-05-07T04:30:31;2.37;;;2.13;;
16304;SDS011;8261;47.678;-122.174;2023-05-07T04:33:04;2.17;;;1.90;;
16304;SDS011;8261;47.678;-122.174;2023-05-07T04:35:36;3.13;;;2.07;;
16304;SDS011;8261;47.678;-122.174;2023-05-07T04:38:08;2.77;;;2.37;;
16304;SDS011;8261;47.678;-122.174;2023-05-07T04:40:39;2.43;;;2.17;;
16304;SDS011;8261;47.678;-122.174;2023-05-07T04:43:11;3.33;;;1.80;;
16304;SDS011;8261;47.678;-122.174;2023-05-07T04:45:44;4.07;;;2.10;;
16304;SDS011;8261;47.678;-122.174;2023-05-07T04:48:17;3.83;;;2.30;;
16304;SDS011;8261;47.678;-122.174;2023-05-07T04:50:49;2.50;;;2.00;;
16304;SDS011;8261;47.678;-122.174;2023-05-07T04:53:20;5.07;;;1.73;;
16304;SDS011;8261;47.678;-122.174;2023-05-07T04:55:54;1.77;;;1.40;;
16304;SDS011;8261;47.678;-122.174;2023-05-07T04:58:26;2.40;;;2.20;;
16304;SDS011;8261;47.678;-122.174;2023-05-07T05:00:59;2.53;;;1.73;;
16304;SDS011;8261;47.678;-122.174;2023-05-07T05:03:33;3.17;;;2.00;;
16304;SDS011;8261;47.678;-122.174;2023-05-07T05:06:04;3.40;;;1.90;;
16304;SDS011;8261;47.678;-122.174;2023-05-07T05:08:37;4.47;;;1.93;;
16304;SDS011;8261;47.678;-122.174;2023-05-07T05:11:08;4.27;;;2.00;;
16304;SDS011;8261;47.678;-122.174;2023-05-07T05:13:40;5.67;;;1.83;;
16304;SDS011;8261;47.678;-122.174;2023-05-07T05:16:12;2.10;;;1.90;;
16304;SDS011;8261;47.678;-122.174;2023-05-07T05:18:46;2.20;;;2.00;;
16304;SDS011;8261;47.678;-122.174;2023-05-07T05:21:19;2.03;;;1.80;;
16304;SDS011;8261;47.678;-122.174;2023-05-07T05:23:51;2.10;;;1.70;;
16304;SDS011;8261;47.678;-122.174;2023-05-07T05:26:23;2.67;;;1.60;;
16304;SDS011;8261;47.678;-122.174;2023-05-07T05:28:54;2.10;;;1.77;;
16304;SDS011;8261;47.678;-122.174;2023-05-07T05:31:29;1.90;;;1.70;;
16304;SDS011;8261;47.678;-122.174;2023-05-07T05:34:04;3.90;;;2.10;;
16304;SDS011;8261;47.678;-122.174;2023-05-07T05:36:35;4.37;;;1.70;;
16304;SDS011;8261;47.678;-122.174;2023-05-07T05:39:07;4.47;;;2.00;;
16304;SDS011;8261;47.678;-122.174;2023-05-07T05:41:39;4.17;;;2.10;;
16304;SDS011;8261;47.678;-122.174;2023-05-07T05:44:11;3.00;;;1.90;;
16304;SDS011;8261;47.678;-122.174;2023-05-07T05:46:43;3.43;;;2.20;;
16304;SDS011;8261;47.678;-122.174;2023-05-07T05:49:17;2.87;;;2.30;;
16304;SDS011;8261;47.678;-122.174;2023-05-07T05:51:49;3.93;;;2.80;;
16304;SDS011;8261;47.678;-122.174;2023-05-07T05:54:22;2.80;;;2.60;;
16304;SDS011;8261;47.678;-122.174;2023-05-07T05:56:53;3.20;;;2.90;;
16304;SDS011;8261;47.678;-122.174;2023-05-07T05:59:24;5.07;;;2.83;;
16304;SDS011;8261;47.678;-122.174;2023-05-07T06:01:56;4.30;;;2.83;;
16304;SDS011;8261;47.678;-122.174;2023-05-07T06:04:30;3.27;;;2.67;;
16304;SDS011;8261;47.678;-122.174;2023-05-07T06:07:02;2.80;;;2.60;;
16304;SDS011;8261;47.678;-122.174;2023-05-07T06:09:33;3.90;;;2.30;;
16304;SDS011;8261;47.678;-122.174;2023-05-07T06:12:05;3.17;;;2.80;;
16304;SDS011;8261;47.678;-122.174;2023-05-07T06:14:37;3.37;;;3.07;;
16304;SDS011;8261;47.678;-122.174;2023-05-07T06:17:08;4.20;;;2.87;;
16304;SDS011;8261;47.678;-122.174;2023-05-07T06:19:49;3.73;;;2.93;;
16304;SDS011;8261;47.678;-122.174;2023-05-07T06:22:20;3.10;;;2.80;;
16304;SDS011;8261;47.678;-122.174;2023-05-07T06:24:52;3.17;;;2.70;;
16304;SDS011;8261;47.678;-122.174;2023-05-07T06:27:23;4.03;;;2.80;;
16304;SDS011;8261;47.678;-122.174;2023-05-07T06:29:56;3.70;;;2.60;;
16304;SDS011;8261;47.678;-122.174;2023-05-07T06:32:28;3.30;;;2.33;;
16304;SDS011;8261;47.678;-122.174;2023-05-07T06:35:02;3.50;;;2.87;;
16304;SDS011;8261;47.678;-122.174;2023-05-07T06:37:33;4.67;;;3.10;;
16304;SDS011;8261;47.678;-122.174;2023-05-07T06:40:06;5.37;;;3.10;;
16304;SDS011;8261;47.678;-122.174;2023-05-07T06:42:39;3.70;;;3.17;;
16304;SDS011;8261;47.678;-122.174;2023-05-07T06:45:11;4.03;;;3.60;;
16304;SDS011;8261;47.678;-122.174;2023-05-07T06:47:43;6.77;;;3.40;;
16304;SDS011;8261;47.678;-122.174;2023-05-07T06:50:16;4.03;;;2.90;;
16304;SDS011;8261;47.678;-122.174;2023-05-07T06:52:48;3.13;;;2.83;;
16304;SDS011;8261;47.678;-122.174;2023-05-07T06:55:20;6.27;;;3.43;;
16304;SDS011;8261;47.678;-122.174;2023-05-07T06:57:52;4.60;;;3.53;;
16304;SDS011;8261;47.678;-122.174;2023-05-07T07:00:23;4.80;;;3.43;;
16304;SDS011;8261;47.678;-122.174;2023-05-07T07:02:54;4.40;;;3.50;;
16304;SDS011;8261;47.678;-122.174;2023-05-07T07:05:29;4.20;;;3.50;;
16304;SDS011;8261;47.678;-122.174;2023-05-07T07:08:00;4.33;;;3.93;;
16304;SDS011;8261;47.678;-122.174;2023-05-07T07:10:32;5.30;;;3.73;;
16304;SDS011;8261;47.678;-122.174;2023-05-07T07:13:04;6.80;;;4.97;;
16304;SDS011;8261;47.678;-122.174;2023-05-07T07:15:36;6.47;;;4.70;;
16304;SDS011;8261;47.678;-122.174;2023-05-07T07:18:07;5.60;;;4.43;;
16304;SDS011;8261;47.678;-122.174;2023-05-07T07:20:41;7.53;;;4.87;;
16304;SDS011;8261;47.678;-122.174;2023-05-07T15:16:53;1.60;;;0.57;;
16304;SDS011;8261;47.678;-122.174;2023-05-07T15:19:26;1.27;;;0.90;;
16304;SDS011;8261;47.678;-122.174;2023-05-07T15:21:58;1.47;;;0.60;;
16304;SDS011;8261;47.678;-122.174;2023-05-07T15:24:31;1.23;;;0.80;;
16304;SDS011;8261;47.678;-122.174;2023-05-07T15:27:03;2.23;;;0.67;;
16304;SDS011;8261;47.678;-122.174;2023-05-07T15:29:35;2.30;;;0.97;;
16304;SDS011;8261;47.678;-122.174;2023-05-07T15:32:08;1.33;;;0.70;;
16304;SDS011;8261;47.678;-122.174;2023-05-07T15:34:41;2.43;;;0.50;;
16304;SDS011;8261;47.678;-122.174;2023-05-07T15:37:12;0.43;;;0.43;;
16304;SDS011;8261;47.678;-122.174;2023-05-07T15:39:44;1.20;;;0.50;;
16304;SDS011;8261;47.678;-122.174;2023-05-07T15:42:15;0.90;;;0.50;;
16304;SDS011;8261;47.678;-122.174;2023-05-07T15:44:47;1.33;;;0.40;;
16304;SDS011;8261;47.678;-122.174;2023-05-07T16:54:44;2.60;;;1.60;;
16304;SDS011;8261;47.678;-122.174;2023-05-07T17:00:08;2.30;;;1.10;;
16304;SDS011;8261;47.678;-122.174;2023-05-07T17:02:41;2.20;;;0.40;;
16304;SDS011;8261;47.678;-122.174;2023-05-07T17:05:17;2.10;;;0.40;;
16304;SDS011;8261;47.678;-122.174;2023-05-07T17:10:27;1.97;;;1.77;;
16304;SDS011;8261;47.678;-122.174;2023-05-07T17:18:17;1.30;;;0.40;;
16304;SDS011;8261;47.678;-122.174;2023-05-07T17:23:20;0.83;;;0.43;;
16304;SDS011;8261;47.678;-122.174;2023-05-07T17:31:12;0.47;;;0.30;;
16304;SDS011;8261;47.678;-122.174;2023-05-07T17:33:46;1.13;;;0.57;;
16304;SDS011;8261;47.678;-122.174;2023-05-07T17:36:20;2.83;;;0.37;;
16304;SDS011;8261;47.678;-122.174;2023-05-07T17:39:28;0.60;;;0.33;;
16304;SDS011;8261;47.678;-122.174;2023-05-07T17:41:59;1.07;;;0.63;;
16304;SDS011;8261;47.678;-122.174;2023-05-07T17:44:31;1.63;;;0.67;;
16304;SDS011;8261;47.678;-122.174;2023-05-07T17:47:06;6.63;;;2.10;;
16304;SDS011;8261;47.678;-122.174;2023-05-07T17:49:39;1.23;;;0.60;;
16304;SDS011;8261;47.678;-122.174;2023-05-07T17:52:10;0.77;;;0.40;;
16304;SDS011;8261;47.678;-122.174;2023-05-07T17:54:41;1.37;;;0.50;;
16304;SDS011;8261;47.678;-122.174;2023-05-07T17:57:15;0.60;;;0.57;;
16304;SDS011;8261;47.678;-122.174;2023-05-07T17:59:47;0.90;;;0.70;;
16304;SDS011;8261;47.678;-122.174;2023-05-07T18:02:22;2.37;;;0.43;;
16304;SDS011;8261;47.678;-122.174;2023-05-07T18:04:53;0.37;;;0.37;;
16304;SDS011;8261;47.678;-122.174;2023-05-07T18:07:25;0.43;;;0.30;;
16304;SDS011;8261;47.678;-122.174;2023-05-07T18:09:56;1.40;;;0.40;;
16304;SDS011;8261;47.678;-122.174;2023-05-07T18:12:27;0.40;;;0.40;;
16304;SDS011;8261;47.678;-122.174;2023-05-07T18:14:59;1.30;;;0.40;;
16304;SDS011;8261;47.678;-122.174;2023-05-07T18:17:33;0.33;;;0.30;;
16304;SDS011;8261;47.678;-122.174;2023-05-07T18:20:05;0.97;;;0.60;;
16304;SDS011;8261;47.678;-122.174;2023-05-07T18:22:39;0.43;;;0.40;;
16304;SDS011;8261;47.678;-122.174;2023-05-07T18:25:10;0.97;;;0.50;;
16304;SDS011;8261;47.678;-122.174;2023-05-07T18:27:42;1.80;;;0.40;;
16304;SDS011;8261;47.678;-122.174;2023-05-07T18:30:13;1.53;;;0.50;;
16304;SDS011;8261;47.678;-122.174;2023-05-07T18:32:47;0.30;;;0.30;;
16304;SDS011;8261;47.678;-122.174;2023-05-07T18:35:18;0.40;;;0.37;;
16304;SDS011;8261;47.678;-122.174;2023-05-07T18:37:49;1.23;;;0.40;;
16304;SDS011;8261;47.678;-122.174;2023-05-07T18:40:20;1.80;;;0.50;;
16304;SDS011;8261;47.678;-122.174;2023-05-07T18:42:51;0.57;;;0.50;;
16304;SDS011;8261;47.678;-122.174;2023-05-07T18:45:23;0.50;;;0.37;;
16304;SDS011;8261;47.678;-122.174;2023-05-07T18:47:56;1.43;;;0.50;;
16304;SDS011;8261;47.678;-122.174;2023-05-07T18:50:28;1.13;;;0.50;;
16304;SDS011;8261;47.678;-122.174;2023-05-07T18:53:00;0.47;;;0.47;;
16304;SDS011;8261;47.678;-122.174;2023-05-07T18:55:31;0.47;;;0.47;;
16304;SDS011;8261;47.678;-122.174;2023-05-07T18:58:02;1.50;;;0.53;;
16304;SDS011;8261;47.678;-122.174;2023-05-07T19:00:33;1.13;;;0.40;;
16304;SDS011;8261;47.678;-122.174;2023-05-07T19:03:07;1.30;;;0.50;;
16304;SDS011;8261;47.678;-122.174;2023-05-07T19:05:39;1.07;;;0.57;;
16304;SDS011;8261;47.678;-122.174;2023-05-07T19:08:11;0.83;;;0.53;;
16304;SDS011;8261;47.678;-122.174;2023-05-07T19:10:42;1.63;;;0.43;;
16304;SDS011;8261;47.678;-122.174;2023-05-07T19:13:16;1.47;;;0.70;;
16304;SDS011;8261;47.678;-122.174;2023-05-07T19:15:47;2.60;;;0.63;;
16304;SDS011;8261;47.678;-122.174;2023-05-07T19:18:20;1.30;;;0.50;;
16304;SDS011;8261;47.678;-122.174;2023-05-07T19:20:52;1.63;;;0.50;;
16304;SDS011;8261;47.678;-122.174;2023-05-07T19:23:23;1.13;;;0.70;;
16304;SDS011;8261;47.678;-122.174;2023-05-07T19:25:55;0.63;;;0.60;;
16304;SDS011;8261;47.678;-122.174;2023-05-07T19:28:27;1.40;;;0.50;;
16304;SDS011;8261;47.678;-122.174;2023-05-07T19:30:58;0.53;;;0.40;;
16304;SDS011;8261;47.678;-122.174;2023-05-07T19:33:31;0.80;;;0.50;;
16304;SDS011;8261;47.678;-122.174;2023-05-07T19:36:03;1.37;;;0.53;;
16304;SDS011;8261;47.678;-122.174;2023-05-07T19:38:35;1.60;;;0.40;;
16304;SDS011;8261;47.678;-122.174;2023-05-07T19:41:06;0.97;;;0.53;;
16304;SDS011;8261;47.678;-122.174;2023-05-07T19:43:39;0.63;;;0.50;;
16304;SDS011;8261;47.678;-122.174;2023-05-07T19:46:10;1.03;;;0.40;;
16304;SDS011;8261;47.678;-122.174;2023-05-07T19:48:45;1.70;;;0.50;;
16304;SDS011;8261;47.678;-122.174;2023-05-07T19:51:16;0.40;;;0.40;;
16304;SDS011;8261;47.678;-122.174;2023-05-07T19:53:47;2.20;;;0.53;;
16304;SDS011;8261;47.678;-122.174;2023-05-07T19:56:19;0.57;;;0.40;;
16304;SDS011;8261;47.678;-122.174;2023-05-07T19:58:51;2.57;;;0.43;;
16304;SDS011;8261;47.678;-122.174;2023-05-07T20:01:22;0.93;;;0.60;;
16304;SDS011;8261;47.678;-122.174;2023-05-07T20:03:57;0.50;;;0.43;;
16304;SDS011;8261;47.678;-122.174;2023-05-07T20:06:28;0.50;;;0.30;;
16304;SDS011;8261;47.678;-122.174;2023-05-07T20:08:59;0.40;;;0.40;;
16304;SDS011;8261;47.678;-122.174;2023-05-07T20:11:30;0.57;;;0.30;;
16304;SDS011;8261;47.678;-122.174;2023-05-07T20:14:02;0.40;;;0.30;;
16304;SDS011;8261;47.678;-122.174;2023-05-07T20:16:33;0.50;;;0.50;;
16304;SDS011;8261;47.678;-122.174;2023-05-07T20:19:06;1.20;;;0.50;;
16304;SDS011;8261;47.678;-122.174;2023-05-07T20:21:37;0.43;;;0.40;;
16304;SDS011;8261;47.678;-122.174;2023-05-07T20:24:09;0.57;;;0.40;;
16304;SDS011;8261;47.678;-122.174;2023-05-07T20:26:40;0.50;;;0.50;;
16304;SDS011;8261;47.678;-122.174;2023-05-07T20:29:11;1.07;;;0.60;;
16304;SDS011;8261;47.678;-122.174;2023-05-07T20:31:43;0.70;;;0.40;;
16304;SDS011;8261;47.678;-122.174;2023-05-07T20:34:16;0.77;;;0.50;;
16304;SDS011;8261;47.678;-122.174;2023-05-07T20:36:47;1.07;;;0.47;;
16304;SDS011;8261;47.678;-122.174;2023-05-07T20:39:19;1.17;;;0.53;;
16304;SDS011;8261;47.678;-122.174;2023-05-07T20:41:50;1.30;;;0.50;;
16304;SDS011;8261;47.678;-122.174;2023-05-07T20:44:21;0.73;;;0.40;;
16304;SDS011;8261;47.678;-122.174;2023-05-07T20:46:53;0.93;;;0.50;;
16304;SDS011;8261;47.678;-122.174;2023-05-07T20:49:26;0.40;;;0.40;;
16304;SDS011;8261;47.678;-122.174;2023-05-07T20:51:57;0.47;;;0.47;;
16304;SDS011;8261;47.678;-122.174;2023-05-07T20:54:28;0.73;;;0.40;;
16304;SDS011;8261;47.678;-122.174;2023-05-07T20:56:59;0.63;;;0.50;;
16304;SDS011;8261;47.678;-122.174;2023-05-07T20:59:30;0.60;;;0.50;;
16304;SDS011;8261;47.678;-122.174;2023-05-07T21:02:02;0.63;;;0.40;;
16304;SDS011;8261;47.678;-122.174;2023-05-07T21:04:36;0.93;;;0.60;;
16304;SDS011;8261;47.678;-122.174;2023-05-07T21:07:07;1.27;;;0.60;;
16304;SDS011;8261;47.678;-122.174;2023-05-07T21:09:39;0.73;;;0.60;;
16304;SDS011;8261;47.678;-122.174;2023-05-07T21:12:10;0.67;;;0.50;;
16304;SDS011;8261;47.678;-122.174;2023-05-07T21:14:41;0.97;;;0.40;;
16304;SDS011;8261;47.678;-122.174;2023-05-07T21:17:12;2.40;;;0.40;;
16304;SDS011;8261;47.678;-122.174;2023-05-07T21:19:45;1.30;;;0.40;;
16304;SDS011;8261;47.678;-122.174;2023-05-07T21:22:16;2.57;;;0.60;;
16304;SDS011;8261;47.678;-122.174;2023-05-07T21:24:47;0.67;;;0.50;;
16304;SDS011;8261;47.678;-122.174;2023-05-07T21:27:18;0.60;;;0.50;;
16304;SDS011;8261;47.678;-122.174;2023-05-07T21:29:50;1.07;;;0.47;;
16304;SDS011;8261;47.678;-122.174;2023-05-07T21:32:25;1.80;;;0.70;;
16304;SDS011;8261;47.678;-122.174;2023-05-07T21:34:59;1.40;;;0.50;;
16304;SDS011;8261;47.678;-122.174;2023-05-07T21:37:30;2.33;;;0.50;;
16304;SDS011;8261;47.678;-122.174;2023-05-07T21:40:02;1.50;;;0.40;;
16304;SDS011;8261;47.678;-122.174;2023-05-07T21:42:33;3.53;;;0.50;;
16304;SDS011;8261;47.678;-122.174;2023-05-07T21:45:05;1.00;;;0.50;;
16304;SDS011;8261;47.678;-122.174;2023-05-07T21:47:37;0.90;;;0.50;;
16304;SDS011;8261;47.678;-122.174;2023-05-07T21:50:11;1.83;;;0.60;;
16304;SDS011;8261;47.678;-122.174;2023-05-07T21:52:43;1.50;;;0.50;;
16304;SDS011;8261;47.678;-122.174;2023-05-07T21:55:15;1.93;;;0.60;;
16304;SDS011;8261;47.678;-122.174;2023-05-07T21:57:47;0.87;;;0.50;;
16304;SDS011;8261;47.678;-122.174;2023-05-07T22:00:31;2.00;;;0.60;;
16304;SDS011;8261;47.678;-122.174;2023-05-07T22:03:02;1.43;;;0.40;;
16304;SDS011;8261;47.678;-122.174;2023-05-07T22:05:35;0.73;;;0.43;;
16304;SDS011;8261;47.678;-122.174;2023-05-07T22:08:06;1.10;;;0.50;;
16304;SDS011;8261;47.678;-122.174;2023-05-07T22:10:38;2.60;;;0.70;;
16304;SDS011;8261;47.678;-122.174;2023-05-07T22:13:09;3.30;;;0.70;;
16304;SDS011;8261;47.678;-122.174;2023-05-07T22:15:41;0.60;;;0.60;;
16304;SDS011;8261;47.678;-122.174;2023-05-07T22:18:23;1.33;;;0.43;;
16304;SDS011;8261;47.678;-122.174;2023-05-07T22:20:57;1.60;;;0.50;;
16304;SDS011;8261;47.678;-122.174;2023-05-07T22:23:28;1.13;;;0.50;;
16304;SDS011;8261;47.678;-122.174;2023-05-07T22:25:59;1.20;;;0.60;;
16304;SDS011;8261;47.678;-122.174;2023-05-07T22:28:30;1.70;;;0.73;;
16304;SDS011;8261;47.678;-122.174;2023-05-07T22:31:01;0.43;;;0.40;;
16304;SDS011;8261;47.678;-122.174;2023-05-07T22:33:33;0.97;;;0.50;;
16304;SDS011;8261;47.678;-122.174;2023-05-07T22:36:07;1.13;;;0.40;;
16304;SDS011;8261;47.678;-122.174;2023-05-07T22:38:38;0.90;;;0.30;;
16304;SDS011;8261;47.678;-122.174;2023-05-07T22:41:09;0.93;;;0.57;;
16304;SDS011;8261;47.678;-122.174;2023-05-07T22:43:41;1.07;;;0.43;;
16304;SDS011;8261;47.678;-122.174;2023-05-07T22:46:12;1.00;;;0.60;;
16304;SDS011;8261;47.678;-122.174;2023-05-07T22:48:44;1.90;;;0.50;;
16304;SDS011;8261;47.678;-122.174;2023-05-07T22:51:16;0.87;;;0.50;;
16304;SDS011;8261;47.678;-122.174;2023-05-07T22:53:48;0.87;;;0.40;;
16304;SDS011;8261;47.678;-122.174;2023-05-07T22:56:20;1.83;;;0.40;;
16304;SDS011;8261;47.678;-122.174;2023-05-07T22:58:51;0.60;;;0.40;;
16304;SDS011;8261;47.678;-122.174;2023-05-07T23:01:22;1.13;;;0.50;;
16304;SDS011;8261;47.678;-122.174;2023-05-07T23:03:54;0.70;;;0.40;;
16304;SDS011;8261;47.678;-122.174;2023-05-07T23:06:27;0.60;;;0.40;;
16304;SDS011;8261;47.678;-122.174;2023-05-07T23:08:58;1.13;;;0.40;;
16304;SDS011;8261;47.678;-122.174;2023-05-07T23:11:31;1.37;;;0.37;;
16304;SDS011;8261;47.678;-122.174;2023-05-07T23:14:03;0.30;;;0.30;;
16304;SDS011;8261;47.678;-122.174;2023-05-07T23:16:34;0.30;;;0.30;;
16304;SDS011;8261;47.678;-122.174;2023-05-07T23:19:07;1.27;;;0.40;;
16304;SDS011;8261;47.678;-122.174;2023-05-07T23:21:41;0.63;;;0.33;;
16304;SDS011;8261;47.678;-122.174;2023-05-07T23:24:12;1.80;;;0.50;;
16304;SDS011;8261;47.678;-122.174;2023-05-07T23:26:45;0.67;;;0.37;;
16304;SDS011;8261;47.678;-122.174;2023-05-07T23:29:16;0.80;;;0.60;;
16304;SDS011;8261;47.678;-122.174;2023-05-07T23:31:48;0.40;;;0.40;;
16304;SDS011;8261;47.678;-122.174;2023-05-07T23:34:19;0.50;;;0.30;;
16304;SDS011;8261;47.678;-122.174;2023-05-07T23:36:53;3.00;;;0.50;;
16304;SDS011;8261;47.678;-122.174;2023-05-07T23:39:24;0.60;;;0.37;;
16304;SDS011;8261;47.678;-122.174;2023-05-07T23:41:55;4.00;;;0.60;;
16304;SDS011;8261;47.678;-122.174;2023-05-07T23:44:27;1.80;;;0.47;;
16304;SDS011;8261;47.678;-122.174;2023-05-07T23:46:59;1.30;;;0.57;;
16304;SDS011;8261;47.678;-122.174;2023-05-07T23:49:31;0.40;;;0.40;;
16304;SDS011;8261;47.678;-122.174;2023-05-07T23:52:04;0.70;;;0.50;;
16304;SDS011;8261;47.678;-122.174;2023-05-07T23:54:36;0.70;;;0.50;;
16304;SDS011;8261;47.678;-122.174;2023-05-07T23:57:09;0.93;;;0.40;;
16304;SDS011;8261;47.678;-122.174;2023-05-07T23:59:42;0.40;;;0.40;;
